createdAt,value
2023-08-04T00:05:07.804Z,3.40
2023-08-04T00:11:09.894Z,2.37
2023-08-04T00:17:11.708Z,3.42
2023-08-04T00:23:13.252Z,2.65
2023-08-04T00:29:14.758Z,2.70
2023-08-04T00:35:16.780Z,3.33
2023-08-04T00:41:18.916Z,2.73
2023-08-04T00:47:21.535Z,3.05
2023-08-04T00:53:23.238Z,3.72
2023-08-04T00:59:26.475Z,3.00
2023-08-04T01:05:33.133Z,2.60
2023-08-04T01:11:40.325Z,3.33
2023-08-04T01:17:41.877Z,4.05
2023-08-04T01:23:43.400Z,3.22
2023-08-04T01:29:46.234Z,2.47
2023-08-04T01:35:47.785Z,3.08
2023-08-04T01:41:49.467Z,3.27
2023-08-04T01:47:51.538Z,3.78
2023-08-04T01:53:53.074Z,5.82
2023-08-04T01:59:54.556Z,3.97
2023-08-04T02:05:56.608Z,16.10
2023-08-04T02:12:00.956Z,6.60
2023-08-04T02:18:04.346Z,6.40
2023-08-04T02:24:06.014Z,5.80
2023-08-04T02:30:07.937Z,6.27
2023-08-04T02:36:10.243Z,5.72
2023-08-04T02:42:11.734Z,5.83
2023-08-04T02:48:13.239Z,6.88
2023-08-04T02:54:14.801Z,5.53
2023-08-04T03:00:16.339Z,6.20
2023-08-04T03:06:17.859Z,6.22
2023-08-04T03:12:19.368Z,5.80
2023-08-04T03:18:20.910Z,6.40
2023-08-04T03:24:22.420Z,5.45
2023-08-04T03:30:23.934Z,6.50
2023-08-04T03:36:25.430Z,6.50
2023-08-04T03:42:26.922Z,6.67
2023-08-04T03:48:28.565Z,6.63
2023-08-04T03:54:30.122Z,7.55
2023-08-04T04:00:32.263Z,6.93
2023-08-04T04:06:33.838Z,8.35
2023-08-04T04:12:36.277Z,7.23
2023-08-04T04:18:37.795Z,8.05
2023-08-04T04:24:39.947Z,7.30
2023-08-04T04:30:41.426Z,7.83
2023-08-04T04:36:43.084Z,9.60
2023-08-04T04:42:44.599Z,12.30
2023-08-04T04:48:46.297Z,10.35
2023-08-04T04:54:47.825Z,10.30
2023-08-04T05:00:49.872Z,10.43
2023-08-04T05:06:51.436Z,8.82
2023-08-04T05:12:53.063Z,8.97
2023-08-04T05:18:54.632Z,8.52
2023-08-04T05:25:09.848Z,7.47
2023-08-04T05:31:12.764Z,6.87
2023-08-04T05:37:14.291Z,7.45
2023-08-04T05:43:15.798Z,7.40
2023-08-04T05:49:18.851Z,7.32
2023-08-04T05:55:23.583Z,7.05
2023-08-04T06:01:27.314Z,6.43
2023-08-04T06:07:28.880Z,7.03
2023-08-04T06:13:30.441Z,6.57
2023-08-04T06:19:32.034Z,5.60
2023-08-04T06:25:33.712Z,8.07
2023-08-04T06:31:35.484Z,7.60
2023-08-04T06:37:37.158Z,7.90
2023-08-04T06:43:40.041Z,9.80
2023-08-04T06:49:42.198Z,8.68
2023-08-04T06:55:47.275Z,8.65
2023-08-04T07:01:49.481Z,7.57
2023-08-04T07:07:52.690Z,7.65
2023-08-04T07:13:54.512Z,7.47
2023-08-04T07:19:56.085Z,8.10
2023-08-04T07:25:57.852Z,10.65
2023-08-04T07:31:59.371Z,7.70
2023-08-04T07:38:00.952Z,6.95
2023-08-04T07:44:02.448Z,9.80
2023-08-04T07:50:04.063Z,11.30
2023-08-04T07:56:05.601Z,11.52
2023-08-04T08:02:07.122Z,10.33
2023-08-04T08:08:09.120Z,10.45
2023-08-04T08:14:10.676Z,12.37
2023-08-04T08:20:12.386Z,9.85
2023-08-04T08:26:14.021Z,8.32
2023-08-04T08:32:15.610Z,9.63
2023-08-04T08:38:17.150Z,10.85
2023-08-04T08:44:19.870Z,11.10
2023-08-04T08:50:23.984Z,7.97
2023-08-04T08:56:26.304Z,10.18
2023-08-04T09:02:28.139Z,6.77
2023-08-04T09:08:30.214Z,9.00
2023-08-04T09:14:49.171Z,4.47
2023-08-04T09:20:57.627Z,4.63
2023-08-04T09:26:59.152Z,5.95
2023-08-04T09:33:00.682Z,5.50
2023-08-04T09:39:04.103Z,5.70
2023-08-04T09:45:06.121Z,8.27
2023-08-04T09:51:08.885Z,9.77
2023-08-04T09:57:11.132Z,7.13
2023-08-04T10:03:13.779Z,6.47
2023-08-04T10:09:16.611Z,6.40
2023-08-04T10:15:19.977Z,5.63
2023-08-04T10:21:26.209Z,5.78
2023-08-04T10:27:27.774Z,6.28
2023-08-04T10:33:29.377Z,6.57
2023-08-04T10:39:33.969Z,6.40
2023-08-04T10:45:51.625Z,4.23
2023-08-04T10:51:54.077Z,6.50
2023-08-04T10:57:55.745Z,6.35
2023-08-04T11:03:59.282Z,5.03
2023-08-04T11:10:04.122Z,9.07
2023-08-04T11:16:05.633Z,8.57
2023-08-04T11:22:08.243Z,4.18
2023-08-04T11:28:09.786Z,6.55
2023-08-04T11:34:14.836Z,5.07
2023-08-04T11:40:23.130Z,5.30
2023-08-04T11:46:25.012Z,7.17
2023-08-04T11:52:26.723Z,8.70
2023-08-04T11:58:29.444Z,4.70
2023-08-04T12:04:31.301Z,6.40
2023-08-04T12:10:33.600Z,5.47
2023-08-04T12:16:55.528Z,5.40
2023-08-04T12:23:12.977Z,7.65
2023-08-04T12:29:14.603Z,5.03
2023-08-04T12:35:16.306Z,4.60
2023-08-04T12:41:18.097Z,4.32
2023-08-04T12:47:19.657Z,4.53
2023-08-04T12:53:21.417Z,4.40
2023-08-04T12:59:22.934Z,5.90
2023-08-04T13:05:24.506Z,3.90
2023-08-04T13:11:26.541Z,5.38
2023-08-04T13:17:28.202Z,4.40
2023-08-04T13:23:32.116Z,4.72
2023-08-04T13:29:33.816Z,3.92
2023-08-04T13:35:35.392Z,6.03
2023-08-04T13:41:37.183Z,5.47
2023-08-04T13:47:39.332Z,4.53
2023-08-04T13:53:40.942Z,4.55
2023-08-04T13:59:42.800Z,5.75
2023-08-04T14:05:44.328Z,6.53
2023-08-04T14:11:45.861Z,3.90
2023-08-04T14:17:47.460Z,4.40
2023-08-04T14:23:49.170Z,4.72
2023-08-04T14:29:50.737Z,3.90
2023-08-04T14:35:52.269Z,5.67
2023-08-04T14:41:53.862Z,3.85
2023-08-04T14:47:55.446Z,8.80
2023-08-04T14:53:56.993Z,6.38
2023-08-04T14:59:58.554Z,5.15
2023-08-04T15:06:00.107Z,3.23
2023-08-04T15:12:01.654Z,4.35
2023-08-04T15:18:03.466Z,5.17
2023-08-04T15:24:05.132Z,4.70
2023-08-04T15:30:06.981Z,2.92
2023-08-04T15:36:09.409Z,8.37
2023-08-04T15:42:10.998Z,6.38
2023-08-04T15:48:12.499Z,6.60
2023-08-04T15:54:14.058Z,4.57
2023-08-04T16:00:15.666Z,4.00
2023-08-04T16:06:17.291Z,3.83
2023-08-04T16:12:18.783Z,3.85
2023-08-04T16:18:20.277Z,6.17
2023-08-04T16:24:22.023Z,3.72
2023-08-04T16:30:23.554Z,5.22
2023-08-04T16:36:25.121Z,6.37
2023-08-04T16:42:26.620Z,7.63
2023-08-04T16:48:28.277Z,5.60
2023-08-04T16:54:29.866Z,6.07
2023-08-04T17:00:31.456Z,3.53
2023-08-04T17:06:33.036Z,4.97
2023-08-04T17:12:34.684Z,5.10
2023-08-04T17:18:36.193Z,4.63
2023-08-04T17:24:38.719Z,4.40
2023-08-04T17:30:40.262Z,3.97
2023-08-04T17:36:44.556Z,4.77
2023-08-04T17:42:46.148Z,5.75
2023-08-04T17:48:47.818Z,4.80
2023-08-04T17:54:49.305Z,5.28
2023-08-04T18:00:51.184Z,5.00
2023-08-04T18:06:53.211Z,5.07
2023-08-04T18:12:55.637Z,4.95
2023-08-04T18:18:57.333Z,4.60
2023-08-04T18:24:59.173Z,5.03
2023-08-04T18:31:00.860Z,4.93
2023-08-04T18:37:02.485Z,4.17
2023-08-04T18:43:04.104Z,4.28
2023-08-04T18:49:05.682Z,6.00
2023-08-04T18:55:07.450Z,5.15
2023-08-04T19:01:09.178Z,5.72
2023-08-04T19:07:11.386Z,6.63
2023-08-04T19:13:12.928Z,5.45
2023-08-04T19:19:14.484Z,5.50
2023-08-04T19:25:16.402Z,5.47
2023-08-04T19:31:18.053Z,5.35
2023-08-04T19:37:19.739Z,7.10
2023-08-04T19:43:21.502Z,6.07
2023-08-04T19:49:23.116Z,6.13
2023-08-04T19:55:38.153Z,4.75
2023-08-04T20:01:43.961Z,4.07
2023-08-04T20:07:45.502Z,6.10
2023-08-04T20:13:47.443Z,5.45
2023-08-04T20:19:49.059Z,7.20
2023-08-04T20:25:50.801Z,5.70
2023-08-04T20:31:52.657Z,6.22
2023-08-04T20:37:55.578Z,5.70
2023-08-04T20:43:57.184Z,7.22
2023-08-04T20:49:58.836Z,6.13
2023-08-04T20:56:01.391Z,6.10
2023-08-04T21:02:02.978Z,6.80
2023-08-04T21:08:04.745Z,7.87
2023-08-04T21:14:06.308Z,6.05
2023-08-04T21:20:09.527Z,6.00
2023-08-04T21:26:11.284Z,6.40
2023-08-04T21:32:12.906Z,7.10
2023-08-04T21:38:14.432Z,7.53
2023-08-04T21:44:15.998Z,6.15
2023-08-04T21:50:17.523Z,6.20
2023-08-04T21:56:19.014Z,7.13
2023-08-04T22:02:20.598Z,7.80
2023-08-04T22:08:22.202Z,6.73
2023-08-04T22:14:24.011Z,5.97
2023-08-04T22:20:25.560Z,7.70
2023-08-04T22:26:27.253Z,7.43
2023-08-04T22:32:29.230Z,9.35
2023-08-04T22:38:30.813Z,5.87
2023-08-04T22:44:33.362Z,7.75
2023-08-04T22:50:34.886Z,5.73
2023-08-04T22:56:36.367Z,6.35
2023-08-04T23:02:38.024Z,5.53
2023-08-04T23:08:39.670Z,6.13
2023-08-04T23:14:42.390Z,5.25
2023-08-04T23:20:47.342Z,8.97
2023-08-04T23:26:49.486Z,7.80
2023-08-04T23:32:51.261Z,4.80
2023-08-04T23:38:52.823Z,6.13
2023-08-04T23:44:54.333Z,6.57
2023-08-04T23:50:55.912Z,4.77
2023-08-04T23:56:57.406Z,5.75
